sensor_id;sensor_type;location;lat;lon;timestamp;P1;durP1;ratioP1;P2;durP2;ratioP2
428;SDS011;201;48.758;9.290;2022-12-18T00:02:04;135.23;;;32.90;;
428;SDS011;201;48.758;9.290;2022-12-18T00:04:30;85.33;;;33.93;;
428;SDS011;201;48.758;9.290;2022-12-18T00:06:55;57.70;;;28.90;;
428;SDS011;201;48.758;9.290;2022-12-18T00:09:21;73.87;;;32.10;;
428;SDS011;201;48.758;9.290;2022-12-18T00:11:47;59.47;;;30.17;;
428;SDS011;201;48.758;9.290;2022-12-18T00:14:12;68.60;;;31.40;;
428;SDS011;201;48.758;9.290;2022-12-18T00:16:38;85.27;;;32.17;;
428;SDS011;201;48.758;9.290;2022-12-18T00:19:05;81.88;;;29.45;;
428;SDS011;201;48.758;9.290;2022-12-18T00:21:32;56.55;;;28.50;;
428;SDS011;201;48.758;9.290;2022-12-18T00:23:59;69.53;;;31.08;;
428;SDS011;201;48.758;9.290;2022-12-18T00:26:25;68.32;;;27.17;;
428;SDS011;201;48.758;9.290;2022-12-18T00:28:53;66.47;;;29.75;;
428;SDS011;201;48.758;9.290;2022-12-18T00:31:21;63.90;;;25.17;;
428;SDS011;201;48.758;9.290;2022-12-18T00:33:48;67.78;;;27.92;;
428;SDS011;201;48.758;9.290;2022-12-18T00:36:18;56.20;;;28.67;;
428;SDS011;201;48.758;9.290;2022-12-18T00:38:45;63.83;;;28.08;;
428;SDS011;201;48.758;9.290;2022-12-18T00:41:12;66.45;;;28.15;;
428;SDS011;201;48.758;9.290;2022-12-18T00:43:59;54.10;;;23.75;;
428;SDS011;201;48.758;9.290;2022-12-18T00:46:25;56.40;;;29.57;;
428;SDS011;201;48.758;9.290;2022-12-18T00:48:50;96.83;;;31.97;;
428;SDS011;201;48.758;9.290;2022-12-18T00:51:16;76.70;;;32.73;;
428;SDS011;201;48.758;9.290;2022-12-18T00:53:41;72.00;;;30.87;;
428;SDS011;201;48.758;9.290;2022-12-18T00:56:07;55.43;;;24.20;;
428;SDS011;201;48.758;9.290;2022-12-18T00:58:32;50.73;;;26.20;;
428;SDS011;201;48.758;9.290;2022-12-18T01:00:58;53.87;;;24.60;;
428;SDS011;201;48.758;9.290;2022-12-18T01:03:23;93.70;;;24.53;;
428;SDS011;201;48.758;9.290;2022-12-18T01:05:49;43.50;;;24.70;;
428;SDS011;201;48.758;9.290;2022-12-18T01:08:14;60.33;;;28.63;;
428;SDS011;201;48.758;9.290;2022-12-18T01:10:40;53.27;;;23.50;;
428;SDS011;201;48.758;9.290;2022-12-18T01:13:06;38.55;;;21.95;;
428;SDS011;201;48.758;9.290;2022-12-18T01:15:32;53.00;;;19.60;;
428;SDS011;201;48.758;9.290;2022-12-18T01:17:57;40.27;;;21.27;;
428;SDS011;201;48.758;9.290;2022-12-18T01:20:23;68.43;;;22.67;;
428;SDS011;201;48.758;9.290;2022-12-18T01:22:48;51.30;;;24.43;;
428;SDS011;201;48.758;9.290;2022-12-18T01:25:14;55.30;;;26.00;;
428;SDS011;201;48.758;9.290;2022-12-18T01:27:39;79.00;;;28.50;;
428;SDS011;201;48.758;9.290;2022-12-18T01:30:05;49.20;;;26.67;;
428;SDS011;201;48.758;9.290;2022-12-18T01:32:31;64.47;;;27.60;;
428;SDS011;201;48.758;9.290;2022-12-18T01:34:57;58.10;;;24.80;;
428;SDS011;201;48.758;9.290;2022-12-18T01:37:23;72.90;;;27.33;;
428;SDS011;201;48.758;9.290;2022-12-18T01:39:49;54.10;;;27.92;;
428;SDS011;201;48.758;9.290;2022-12-18T01:42:15;60.23;;;28.20;;
428;SDS011;201;48.758;9.290;2022-12-18T01:47:43;58.85;;;31.73;;
428;SDS011;201;48.758;9.290;2022-12-18T01:52:56;49.83;;;24.05;;
428;SDS011;201;48.758;9.290;2022-12-18T01:55:29;65.95;;;27.92;;
428;SDS011;201;48.758;9.290;2022-12-18T01:57:58;55.47;;;29.10;;
428;SDS011;201;48.758;9.290;2022-12-18T02:00:25;41.15;;;25.40;;
428;SDS011;201;48.758;9.290;2022-12-18T02:02:54;70.28;;;29.05;;
428;SDS011;201;48.758;9.290;2022-12-18T02:05:23;65.30;;;25.25;;
428;SDS011;201;48.758;9.290;2022-12-18T02:10:53;53.17;;;21.20;;
428;SDS011;201;48.758;9.290;2022-12-18T02:13:36;43.63;;;26.80;;
428;SDS011;201;48.758;9.290;2022-12-18T02:16:24;56.78;;;26.85;;
428;SDS011;201;48.758;9.290;2022-12-18T02:18:54;51.08;;;22.33;;
428;SDS011;201;48.758;9.290;2022-12-18T02:24:15;44.72;;;18.67;;
428;SDS011;201;48.758;9.290;2022-12-18T02:27:02;35.95;;;19.48;;
428;SDS011;201;48.758;9.290;2022-12-18T02:29:52;41.88;;;20.85;;
428;SDS011;201;48.758;9.290;2022-12-18T02:32:20;37.05;;;19.63;;
428;SDS011;201;48.758;9.290;2022-12-18T02:34:50;56.00;;;24.65;;
428;SDS011;201;48.758;9.290;2022-12-18T02:37:17;56.92;;;25.48;;
428;SDS011;201;48.758;9.290;2022-12-18T02:39:44;49.83;;;22.70;;
428;SDS011;201;48.758;9.290;2022-12-18T02:42:12;47.95;;;23.27;;
428;SDS011;201;48.758;9.290;2022-12-18T02:44:42;39.90;;;20.87;;
428;SDS011;201;48.758;9.290;2022-12-18T02:47:13;47.63;;;23.80;;
428;SDS011;201;48.758;9.290;2022-12-18T02:52:45;36.17;;;20.52;;
428;SDS011;201;48.758;9.290;2022-12-18T02:58:15;46.70;;;22.00;;
428;SDS011;201;48.758;9.290;2022-12-18T03:00:50;37.00;;;18.38;;
428;SDS011;201;48.758;9.290;2022-12-18T03:03:30;41.83;;;21.58;;
428;SDS011;201;48.758;9.290;2022-12-18T03:06:06;59.35;;;24.67;;
428;SDS011;201;48.758;9.290;2022-12-18T03:08:39;34.60;;;19.98;;
428;SDS011;201;48.758;9.290;2022-12-18T03:11:10;39.65;;;19.40;;
428;SDS011;201;48.758;9.290;2022-12-18T03:13:41;34.33;;;18.13;;
428;SDS011;201;48.758;9.290;2022-12-18T03:16:10;45.60;;;21.30;;
428;SDS011;201;48.758;9.290;2022-12-18T03:18:42;39.53;;;18.67;;
428;SDS011;201;48.758;9.290;2022-12-18T03:21:17;41.90;;;19.90;;
428;SDS011;201;48.758;9.290;2022-12-18T03:23:47;43.67;;;23.17;;
428;SDS011;201;48.758;9.290;2022-12-18T03:26:16;54.92;;;23.98;;
428;SDS011;201;48.758;9.290;2022-12-18T03:28:47;46.25;;;20.67;;
428;SDS011;201;48.758;9.290;2022-12-18T03:31:19;37.00;;;19.27;;
428;SDS011;201;48.758;9.290;2022-12-18T03:33:52;39.63;;;21.02;;
428;SDS011;201;48.758;9.290;2022-12-18T03:36:20;47.92;;;24.33;;
428;SDS011;201;48.758;9.290;2022-12-18T03:38:46;54.90;;;25.27;;
428;SDS011;201;48.758;9.290;2022-12-18T03:44:21;33.38;;;21.45;;
428;SDS011;201;48.758;9.290;2022-12-18T03:46:54;53.47;;;20.23;;
428;SDS011;201;48.758;9.290;2022-12-18T03:49:34;34.03;;;15.68;;
428;SDS011;201;48.758;9.290;2022-12-18T03:52:07;47.28;;;21.20;;
428;SDS011;201;48.758;9.290;2022-12-18T03:54:38;38.63;;;17.40;;
428;SDS011;201;48.758;9.290;2022-12-18T03:57:09;36.83;;;21.10;;
428;SDS011;201;48.758;9.290;2022-12-18T03:59:39;31.15;;;19.52;;
428;SDS011;201;48.758;9.290;2022-12-18T04:02:06;47.63;;;22.92;;
428;SDS011;201;48.758;9.290;2022-12-18T04:04:34;54.08;;;21.63;;
428;SDS011;201;48.758;9.290;2022-12-18T04:07:00;41.33;;;20.67;;
428;SDS011;201;48.758;9.290;2022-12-18T04:09:27;35.03;;;19.67;;
428;SDS011;201;48.758;9.290;2022-12-18T04:11:55;37.72;;;19.23;;
428;SDS011;201;48.758;9.290;2022-12-18T04:14:20;41.50;;;19.33;;
428;SDS011;201;48.758;9.290;2022-12-18T04:16:46;37.80;;;22.00;;
428;SDS011;201;48.758;9.290;2022-12-18T04:19:11;40.47;;;21.07;;
428;SDS011;201;48.758;9.290;2022-12-18T04:21:37;35.83;;;18.93;;
428;SDS011;201;48.758;9.290;2022-12-18T04:24:02;33.27;;;19.60;;
428;SDS011;201;48.758;9.290;2022-12-18T04:26:28;31.00;;;15.20;;
428;SDS011;201;48.758;9.290;2022-12-18T04:28:54;39.80;;;17.50;;
428;SDS011;201;48.758;9.290;2022-12-18T04:31:19;29.67;;;16.37;;
428;SDS011;201;48.758;9.290;2022-12-18T04:33:45;51.03;;;24.17;;
428;SDS011;201;48.758;9.290;2022-12-18T04:36:10;34.63;;;15.87;;
428;SDS011;201;48.758;9.290;2022-12-18T04:38:37;33.20;;;18.13;;
428;SDS011;201;48.758;9.290;2022-12-18T04:41:02;34.60;;;19.03;;
428;SDS011;201;48.758;9.290;2022-12-18T04:43:28;42.30;;;18.50;;
428;SDS011;201;48.758;9.290;2022-12-18T04:46:00;35.20;;;17.70;;
428;SDS011;201;48.758;9.290;2022-12-18T04:48:27;50.53;;;18.73;;
428;SDS011;201;48.758;9.290;2022-12-18T04:50:52;42.77;;;22.10;;
428;SDS011;201;48.758;9.290;2022-12-18T04:53:18;38.67;;;14.77;;
428;SDS011;201;48.758;9.290;2022-12-18T04:55:43;30.53;;;16.40;;
428;SDS011;201;48.758;9.290;2022-12-18T04:58:09;25.30;;;16.10;;
428;SDS011;201;48.758;9.290;2022-12-18T05:00:34;25.13;;;12.47;;
428;SDS011;201;48.758;9.290;2022-12-18T05:03:00;23.40;;;13.67;;
428;SDS011;201;48.758;9.290;2022-12-18T05:05:27;31.17;;;16.40;;
428;SDS011;201;48.758;9.290;2022-12-18T05:07:52;24.93;;;15.30;;
428;SDS011;201;48.758;9.290;2022-12-18T05:10:18;33.47;;;14.50;;
428;SDS011;201;48.758;9.290;2022-12-18T05:12:43;27.13;;;14.40;;
428;SDS011;201;48.758;9.290;2022-12-18T05:15:26;27.33;;;14.85;;
428;SDS011;201;48.758;9.290;2022-12-18T05:17:52;32.50;;;15.10;;
428;SDS011;201;48.758;9.290;2022-12-18T05:20:18;21.33;;;11.93;;
428;SDS011;201;48.758;9.290;2022-12-18T05:22:43;33.10;;;17.40;;
428;SDS011;201;48.758;9.290;2022-12-18T05:25:09;34.80;;;16.83;;
428;SDS011;201;48.758;9.290;2022-12-18T05:27:34;25.60;;;14.50;;
428;SDS011;201;48.758;9.290;2022-12-18T05:30:00;21.57;;;15.10;;
428;SDS011;201;48.758;9.290;2022-12-18T05:32:25;20.67;;;15.00;;
428;SDS011;201;48.758;9.290;2022-12-18T05:34:51;24.97;;;12.53;;
428;SDS011;201;48.758;9.290;2022-12-18T05:37:16;26.83;;;15.37;;
428;SDS011;201;48.758;9.290;2022-12-18T05:39:42;30.33;;;16.17;;
428;SDS011;201;48.758;9.290;2022-12-18T05:42:08;32.53;;;13.82;;
428;SDS011;201;48.758;9.290;2022-12-18T05:44:34;18.65;;;9.82;;
428;SDS011;201;48.758;9.290;2022-12-18T05:47:00;23.50;;;12.93;;
428;SDS011;201;48.758;9.290;2022-12-18T05:49:26;19.50;;;12.67;;
428;SDS011;201;48.758;9.290;2022-12-18T05:51:51;28.57;;;13.43;;
428;SDS011;201;48.758;9.290;2022-12-18T05:54:17;31.67;;;16.20;;
428;SDS011;201;48.758;9.290;2022-12-18T05:56:42;27.70;;;13.77;;
428;SDS011;201;48.758;9.290;2022-12-18T05:59:08;30.43;;;15.10;;
428;SDS011;201;48.758;9.290;2022-12-18T06:01:34;31.33;;;15.23;;
428;SDS011;201;48.758;9.290;2022-12-18T06:04:00;29.13;;;13.77;;
428;SDS011;201;48.758;9.290;2022-12-18T06:06:26;25.23;;;13.80;;
428;SDS011;201;48.758;9.290;2022-12-18T06:08:52;40.95;;;17.65;;
428;SDS011;201;48.758;9.290;2022-12-18T06:11:20;18.27;;;11.32;;
428;SDS011;201;48.758;9.290;2022-12-18T06:13:54;30.05;;;13.35;;
428;SDS011;201;48.758;9.290;2022-12-18T06:16:21;20.45;;;13.23;;
428;SDS011;201;48.758;9.290;2022-12-18T06:18:46;24.83;;;17.67;;
428;SDS011;201;48.758;9.290;2022-12-18T06:21:12;28.23;;;12.13;;
428;SDS011;201;48.758;9.290;2022-12-18T06:23:37;31.67;;;12.10;;
428;SDS011;201;48.758;9.290;2022-12-18T06:26:04;23.37;;;14.50;;
428;SDS011;201;48.758;9.290;2022-12-18T06:28:31;38.25;;;17.38;;
428;SDS011;201;48.758;9.290;2022-12-18T06:30:56;20.27;;;12.47;;
428;SDS011;201;48.758;9.290;2022-12-18T06:33:22;31.53;;;15.23;;
428;SDS011;201;48.758;9.290;2022-12-18T06:35:52;35.83;;;13.75;;
428;SDS011;201;48.758;9.290;2022-12-18T06:38:17;35.27;;;15.93;;
428;SDS011;201;48.758;9.290;2022-12-18T06:40:43;25.93;;;13.90;;
428;SDS011;201;48.758;9.290;2022-12-18T06:43:08;28.00;;;15.30;;
428;SDS011;201;48.758;9.290;2022-12-18T06:45:33;29.83;;;15.73;;
428;SDS011;201;48.758;9.290;2022-12-18T06:47:59;27.90;;;14.60;;
428;SDS011;201;48.758;9.290;2022-12-18T06:50:25;30.63;;;17.33;;
428;SDS011;201;48.758;9.290;2022-12-18T06:52:50;18.47;;;13.63;;
428;SDS011;201;48.758;9.290;2022-12-18T06:55:16;30.03;;;11.10;;
428;SDS011;201;48.758;9.290;2022-12-18T06:57:41;25.33;;;13.50;;
428;SDS011;201;48.758;9.290;2022-12-18T07:00:07;22.27;;;13.40;;
428;SDS011;201;48.758;9.290;2022-12-18T07:02:33;26.53;;;12.77;;
428;SDS011;201;48.758;9.290;2022-12-18T07:04:58;22.67;;;13.20;;
428;SDS011;201;48.758;9.290;2022-12-18T07:07:24;23.17;;;13.63;;
428;SDS011;201;48.758;9.290;2022-12-18T07:09:50;23.60;;;14.30;;
428;SDS011;201;48.758;9.290;2022-12-18T07:12:16;30.92;;;15.23;;
428;SDS011;201;48.758;9.290;2022-12-18T07:14:41;21.70;;;12.80;;
428;SDS011;201;48.758;9.290;2022-12-18T07:17:07;31.70;;;19.10;;
428;SDS011;201;48.758;9.290;2022-12-18T07:19:32;22.50;;;11.83;;
428;SDS011;201;48.758;9.290;2022-12-18T07:21:58;24.80;;;13.32;;
428;SDS011;201;48.758;9.290;2022-12-18T07:24:24;24.33;;;14.57;;
428;SDS011;201;48.758;9.290;2022-12-18T07:26:50;24.20;;;13.93;;
428;SDS011;201;48.758;9.290;2022-12-18T07:29:15;45.03;;;25.43;;
428;SDS011;201;48.758;9.290;2022-12-18T07:31:41;30.23;;;15.60;;
428;SDS011;201;48.758;9.290;2022-12-18T07:34:09;36.57;;;18.37;;
428;SDS011;201;48.758;9.290;2022-12-18T07:36:36;49.20;;;24.65;;
428;SDS011;201;48.758;9.290;2022-12-18T07:39:02;43.40;;;21.80;;
428;SDS011;201;48.758;9.290;2022-12-18T07:41:27;29.50;;;14.50;;
428;SDS011;201;48.758;9.290;2022-12-18T07:43:53;29.50;;;18.57;;
428;SDS011;201;48.758;9.290;2022-12-18T07:46:18;27.80;;;15.90;;
428;SDS011;201;48.758;9.290;2022-12-18T07:48:44;28.70;;;15.17;;
428;SDS011;201;48.758;9.290;2022-12-18T07:51:10;23.60;;;14.82;;
428;SDS011;201;48.758;9.290;2022-12-18T07:53:36;25.77;;;17.17;;
428;SDS011;201;48.758;9.290;2022-12-18T07:56:03;35.50;;;16.87;;
428;SDS011;201;48.758;9.290;2022-12-18T07:58:34;22.75;;;14.00;;
428;SDS011;201;48.758;9.290;2022-12-18T08:01:10;27.90;;;14.13;;
428;SDS011;201;48.758;9.290;2022-12-18T08:03:37;36.40;;;18.60;;
428;SDS011;201;48.758;9.290;2022-12-18T08:06:05;42.00;;;13.50;;
428;SDS011;201;48.758;9.290;2022-12-18T08:08:32;25.38;;;14.68;;
428;SDS011;201;48.758;9.290;2022-12-18T08:10:58;40.08;;;20.85;;
428;SDS011;201;48.758;9.290;2022-12-18T08:13:25;38.25;;;19.98;;
428;SDS011;201;48.758;9.290;2022-12-18T08:15:57;27.60;;;16.63;;
428;SDS011;201;48.758;9.290;2022-12-18T08:18:32;25.25;;;13.05;;
428;SDS011;201;48.758;9.290;2022-12-18T08:21:06;45.65;;;22.83;;
428;SDS011;201;48.758;9.290;2022-12-18T08:23:33;29.88;;;17.02;;
428;SDS011;201;48.758;9.290;2022-12-18T08:25:58;29.00;;;17.77;;
428;SDS011;201;48.758;9.290;2022-12-18T08:28:24;37.53;;;18.60;;
428;SDS011;201;48.758;9.290;2022-12-18T08:30:51;39.03;;;18.70;;
428;SDS011;201;48.758;9.290;2022-12-18T08:33:17;42.92;;;19.88;;
428;SDS011;201;48.758;9.290;2022-12-18T08:35:43;29.57;;;18.73;;
428;SDS011;201;48.758;9.290;2022-12-18T08:38:08;30.10;;;15.33;;
428;SDS011;201;48.758;9.290;2022-12-18T08:40:34;40.60;;;21.67;;
428;SDS011;201;48.758;9.290;2022-12-18T08:42:59;42.03;;;21.43;;
428;SDS011;201;48.758;9.290;2022-12-18T08:45:43;43.42;;;20.17;;
428;SDS011;201;48.758;9.290;2022-12-18T08:48:09;40.33;;;19.73;;
428;SDS011;201;48.758;9.290;2022-12-18T08:50:34;38.30;;;22.93;;
428;SDS011;201;48.758;9.290;2022-12-18T08:53:00;33.30;;;18.33;;
428;SDS011;201;48.758;9.290;2022-12-18T08:55:26;44.05;;;21.27;;
428;SDS011;201;48.758;9.290;2022-12-18T08:57:51;41.53;;;20.77;;
428;SDS011;201;48.758;9.290;2022-12-18T09:00:17;33.87;;;18.73;;
428;SDS011;201;48.758;9.290;2022-12-18T09:02:43;37.83;;;19.20;;
428;SDS011;201;48.758;9.290;2022-12-18T09:05:08;38.90;;;20.17;;
428;SDS011;201;48.758;9.290;2022-12-18T09:07:34;32.80;;;20.65;;
428;SDS011;201;48.758;9.290;2022-12-18T09:10:00;38.63;;;23.20;;
428;SDS011;201;48.758;9.290;2022-12-18T09:12:25;38.30;;;21.47;;
428;SDS011;201;48.758;9.290;2022-12-18T09:14:51;42.90;;;21.93;;
428;SDS011;201;48.758;9.290;2022-12-18T09:17:16;35.13;;;21.10;;
428;SDS011;201;48.758;9.290;2022-12-18T09:19:42;41.93;;;21.00;;
428;SDS011;201;48.758;9.290;2022-12-18T09:22:08;36.70;;;19.30;;
428;SDS011;201;48.758;9.290;2022-12-18T09:24:34;34.80;;;20.42;;
428;SDS011;201;48.758;9.290;2022-12-18T09:27:00;41.60;;;23.47;;
428;SDS011;201;48.758;9.290;2022-12-18T09:29:25;34.53;;;19.00;;
428;SDS011;201;48.758;9.290;2022-12-18T09:31:51;44.30;;;21.80;;
428;SDS011;201;48.758;9.290;2022-12-18T09:34:16;41.13;;;22.67;;
428;SDS011;201;48.758;9.290;2022-12-18T09:36:42;35.50;;;21.60;;
428;SDS011;201;48.758;9.290;2022-12-18T09:39:07;39.57;;;20.90;;
428;SDS011;201;48.758;9.290;2022-12-18T09:41:36;38.60;;;20.37;;
428;SDS011;201;48.758;9.290;2022-12-18T09:44:05;43.92;;;22.88;;
428;SDS011;201;48.758;9.290;2022-12-18T09:46:37;40.17;;;20.08;;
428;SDS011;201;48.758;9.290;2022-12-18T09:49:13;41.10;;;22.50;;
428;SDS011;201;48.758;9.290;2022-12-18T09:51:45;42.00;;;19.45;;
428;SDS011;201;48.758;9.290;2022-12-18T09:54:40;40.35;;;16.83;;
428;SDS011;201;48.758;9.290;2022-12-18T09:57:16;31.20;;;18.30;;
428;SDS011;201;48.758;9.290;2022-12-18T09:59:47;39.15;;;21.30;;
428;SDS011;201;48.758;9.290;2022-12-18T10:02:17;49.17;;;23.70;;
428;SDS011;201;48.758;9.290;2022-12-18T10:04:57;42.22;;;19.55;;
428;SDS011;201;48.758;9.290;2022-12-18T10:13:09;50.90;;;23.20;;
428;SDS011;201;48.758;9.290;2022-12-18T10:15:48;33.08;;;21.08;;
428;SDS011;201;48.758;9.290;2022-12-18T10:24:22;51.72;;;23.23;;
428;SDS011;201;48.758;9.290;2022-12-18T10:26:52;43.10;;;23.38;;
428;SDS011;201;48.758;9.290;2022-12-18T10:29:21;39.92;;;21.50;;
428;SDS011;201;48.758;9.290;2022-12-18T10:31:47;46.80;;;23.88;;
428;SDS011;201;48.758;9.290;2022-12-18T10:34:12;47.70;;;22.83;;
428;SDS011;201;48.758;9.290;2022-12-18T10:36:39;37.35;;;20.50;;
428;SDS011;201;48.758;9.290;2022-12-18T10:39:19;41.10;;;21.00;;
428;SDS011;201;48.758;9.290;2022-12-18T10:41:51;38.72;;;21.27;;
428;SDS011;201;48.758;9.290;2022-12-18T10:44:20;39.00;;;20.80;;
428;SDS011;201;48.758;9.290;2022-12-18T10:46:51;47.28;;;23.27;;
428;SDS011;201;48.758;9.290;2022-12-18T10:51:48;34.60;;;21.60;;
428;SDS011;201;48.758;9.290;2022-12-18T10:54:15;39.20;;;21.20;;
428;SDS011;201;48.758;9.290;2022-12-18T10:56:42;42.40;;;23.33;;
428;SDS011;201;48.758;9.290;2022-12-18T10:59:10;49.70;;;23.90;;
428;SDS011;201;48.758;9.290;2022-12-18T11:01:45;39.75;;;22.90;;
428;SDS011;201;48.758;9.290;2022-12-18T11:04:21;55.15;;;27.33;;
428;SDS011;201;48.758;9.290;2022-12-18T11:07:00;46.38;;;26.77;;
428;SDS011;201;48.758;9.290;2022-12-18T11:09:28;47.78;;;28.48;;
428;SDS011;201;48.758;9.290;2022-12-18T11:11:57;55.92;;;26.83;;
428;SDS011;201;48.758;9.290;2022-12-18T11:17:19;50.28;;;27.90;;
428;SDS011;201;48.758;9.290;2022-12-18T11:19:55;54.17;;;29.33;;
428;SDS011;201;48.758;9.290;2022-12-18T11:24:59;50.22;;;26.42;;
428;SDS011;201;48.758;9.290;2022-12-18T11:27:41;60.88;;;28.63;;
428;SDS011;201;48.758;9.290;2022-12-18T11:30:25;54.60;;;28.35;;
428;SDS011;201;48.758;9.290;2022-12-18T11:38:23;49.67;;;25.95;;
428;SDS011;201;48.758;9.290;2022-12-18T11:40:54;46.00;;;27.02;;
428;SDS011;201;48.758;9.290;2022-12-18T11:43:28;51.40;;;27.90;;
428;SDS011;201;48.758;9.290;2022-12-18T11:46:05;48.60;;;26.77;;
428;SDS011;201;48.758;9.290;2022-12-18T11:49:07;52.17;;;25.92;;
428;SDS011;201;48.758;9.290;2022-12-18T11:51:48;42.22;;;26.38;;
428;SDS011;201;48.758;9.290;2022-12-18T11:54:15;46.85;;;26.48;;
428;SDS011;201;48.758;9.290;2022-12-18T11:56:46;43.17;;;25.50;;
428;SDS011;201;48.758;9.290;2022-12-18T12:08:13;47.33;;;25.88;;
428;SDS011;201;48.758;9.290;2022-12-18T12:18:59;49.30;;;27.90;;
428;SDS011;201;48.758;9.290;2022-12-18T12:21:47;48.25;;;26.35;;
428;SDS011;201;48.758;9.290;2022-12-18T12:30:26;44.10;;;25.02;;
428;SDS011;201;48.758;9.290;2022-12-18T12:38:30;45.90;;;25.60;;
428;SDS011;201;48.758;9.290;2022-12-18T12:41:11;47.30;;;25.15;;
428;SDS011;201;48.758;9.290;2022-12-18T12:43:58;49.85;;;25.63;;
428;SDS011;201;48.758;9.290;2022-12-18T12:46:27;52.72;;;27.70;;
428;SDS011;201;48.758;9.290;2022-12-18T12:48:58;51.60;;;24.90;;
428;SDS011;201;48.758;9.290;2022-12-18T12:51:35;46.28;;;26.48;;
428;SDS011;201;48.758;9.290;2022-12-18T12:54:05;43.80;;;24.55;;
428;SDS011;201;48.758;9.290;2022-12-18T12:56:39;45.22;;;26.20;;
428;SDS011;201;48.758;9.290;2022-12-18T13:04:30;42.05;;;23.20;;
428;SDS011;201;48.758;9.290;2022-12-18T13:07:15;41.15;;;23.20;;
428;SDS011;201;48.758;9.290;2022-12-18T13:18:14;40.08;;;22.73;;
428;SDS011;201;48.758;9.290;2022-12-18T13:20:46;40.97;;;22.60;;
428;SDS011;201;48.758;9.290;2022-12-18T13:25:49;49.67;;;23.58;;
428;SDS011;201;48.758;9.290;2022-12-18T13:28:16;47.72;;;24.15;;
428;SDS011;201;48.758;9.290;2022-12-18T13:31:02;35.97;;;21.65;;
428;SDS011;201;48.758;9.290;2022-12-18T13:41:42;37.50;;;25.25;;
428;SDS011;201;48.758;9.290;2022-12-18T13:44:12;38.20;;;22.60;;
428;SDS011;201;48.758;9.290;2022-12-18T13:46:57;46.20;;;24.10;;
428;SDS011;201;48.758;9.290;2022-12-18T13:52:17;39.83;;;23.58;;
428;SDS011;201;48.758;9.290;2022-12-18T13:54:55;46.38;;;25.63;;
428;SDS011;201;48.758;9.290;2022-12-18T13:57:33;42.67;;;27.48;;
428;SDS011;201;48.758;9.290;2022-12-18T14:02:47;39.47;;;21.50;;
428;SDS011;201;48.758;9.290;2022-12-18T14:05:27;43.78;;;23.30;;
428;SDS011;201;48.758;9.290;2022-12-18T14:08:04;49.42;;;23.33;;
428;SDS011;201;48.758;9.290;2022-12-18T14:10:33;45.65;;;24.15;;
428;SDS011;201;48.758;9.290;2022-12-18T14:13:04;34.53;;;20.30;;
428;SDS011;201;48.758;9.290;2022-12-18T14:15:32;40.88;;;23.90;;
428;SDS011;201;48.758;9.290;2022-12-18T14:18:09;40.88;;;21.30;;
428;SDS011;201;48.758;9.290;2022-12-18T14:20:45;46.38;;;21.50;;
428;SDS011;201;48.758;9.290;2022-12-18T14:23:25;38.22;;;22.55;;
428;SDS011;201;48.758;9.290;2022-12-18T14:25:52;47.25;;;26.23;;
428;SDS011;201;48.758;9.290;2022-12-18T14:28:17;42.60;;;24.90;;
428;SDS011;201;48.758;9.290;2022-12-18T14:30:44;47.43;;;23.93;;
428;SDS011;201;48.758;9.290;2022-12-18T14:33:11;42.78;;;24.25;;
428;SDS011;201;48.758;9.290;2022-12-18T14:35:43;45.28;;;25.52;;
428;SDS011;201;48.758;9.290;2022-12-18T14:38:27;40.90;;;24.42;;
428;SDS011;201;48.758;9.290;2022-12-18T14:41:04;46.55;;;22.83;;
428;SDS011;201;48.758;9.290;2022-12-18T14:43:41;39.80;;;23.65;;
428;SDS011;201;48.758;9.290;2022-12-18T14:48:51;53.45;;;27.38;;
428;SDS011;201;48.758;9.290;2022-12-18T14:51:21;53.50;;;27.23;;
428;SDS011;201;48.758;9.290;2022-12-18T14:54:02;46.08;;;24.58;;
428;SDS011;201;48.758;9.290;2022-12-18T14:56:33;53.92;;;26.27;;
428;SDS011;201;48.758;9.290;2022-12-18T14:59:04;49.20;;;25.77;;
428;SDS011;201;48.758;9.290;2022-12-18T15:01:37;49.85;;;26.58;;
428;SDS011;201;48.758;9.290;2022-12-18T15:04:23;51.10;;;27.65;;
428;SDS011;201;48.758;9.290;2022-12-18T15:06:50;55.33;;;28.17;;
428;SDS011;201;48.758;9.290;2022-12-18T15:09:37;42.00;;;23.98;;
428;SDS011;201;48.758;9.290;2022-12-18T15:12:22;46.90;;;24.65;;
428;SDS011;201;48.758;9.290;2022-12-18T15:14:53;39.25;;;23.77;;
428;SDS011;201;48.758;9.290;2022-12-18T15:17:20;40.40;;;24.10;;
428;SDS011;201;48.758;9.290;2022-12-18T15:19:48;50.45;;;24.02;;
428;SDS011;201;48.758;9.290;2022-12-18T15:22:24;39.28;;;21.95;;
428;SDS011;201;48.758;9.290;2022-12-18T15:24:55;45.20;;;22.63;;
428;SDS011;201;48.758;9.290;2022-12-18T15:27:31;40.08;;;22.80;;
428;SDS011;201;48.758;9.290;2022-12-18T15:32:27;46.90;;;25.35;;
428;SDS011;201;48.758;9.290;2022-12-18T15:35:09;50.80;;;26.93;;
428;SDS011;201;48.758;9.290;2022-12-18T15:37:40;47.72;;;26.38;;
428;SDS011;201;48.758;9.290;2022-12-18T15:40:06;54.93;;;26.50;;
428;SDS011;201;48.758;9.290;2022-12-18T15:42:33;46.22;;;26.95;;
428;SDS011;201;48.758;9.290;2022-12-18T15:45:17;49.50;;;26.75;;
428;SDS011;201;48.758;9.290;2022-12-18T15:47:43;47.90;;;24.87;;
428;SDS011;201;48.758;9.290;2022-12-18T15:50:08;48.33;;;25.20;;
428;SDS011;201;48.758;9.290;2022-12-18T15:52:41;45.70;;;26.27;;
428;SDS011;201;48.758;9.290;2022-12-18T15:55:13;48.00;;;26.20;;
428;SDS011;201;48.758;9.290;2022-12-18T15:57:58;44.00;;;25.02;;
428;SDS011;201;48.758;9.290;2022-12-18T16:00:24;49.77;;;27.53;;
428;SDS011;201;48.758;9.290;2022-12-18T16:02:50;41.90;;;24.73;;
428;SDS011;201;48.758;9.290;2022-12-18T16:05:16;68.20;;;26.90;;
428;SDS011;201;48.758;9.290;2022-12-18T16:07:43;54.35;;;26.00;;
428;SDS011;201;48.758;9.290;2022-12-18T16:10:09;51.08;;;26.48;;
428;SDS011;201;48.758;9.290;2022-12-18T16:12:35;48.17;;;24.50;;
428;SDS011;201;48.758;9.290;2022-12-18T16:15:02;44.30;;;24.58;;
428;SDS011;201;48.758;9.290;2022-12-18T16:17:29;43.92;;;24.02;;
428;SDS011;201;48.758;9.290;2022-12-18T16:19:54;50.47;;;25.30;;
428;SDS011;201;48.758;9.290;2022-12-18T16:22:21;48.00;;;25.40;;
428;SDS011;201;48.758;9.290;2022-12-18T16:24:48;44.40;;;24.98;;
428;SDS011;201;48.758;9.290;2022-12-18T16:27:15;43.47;;;26.23;;
428;SDS011;201;48.758;9.290;2022-12-18T16:29:40;46.03;;;25.60;;
428;SDS011;201;48.758;9.290;2022-12-18T16:32:06;52.37;;;27.33;;
428;SDS011;201;48.758;9.290;2022-12-18T16:34:34;47.97;;;25.13;;
428;SDS011;201;48.758;9.290;2022-12-18T16:37:03;53.77;;;27.50;;
428;SDS011;201;48.758;9.290;2022-12-18T16:39:30;51.88;;;26.30;;
428;SDS011;201;48.758;9.290;2022-12-18T16:41:58;46.42;;;23.52;;
428;SDS011;201;48.758;9.290;2022-12-18T16:44:23;47.47;;;24.77;;
428;SDS011;201;48.758;9.290;2022-12-18T16:46:49;44.67;;;24.83;;
428;SDS011;201;48.758;9.290;2022-12-18T16:49:15;48.50;;;25.27;;
428;SDS011;201;48.758;9.290;2022-12-18T16:51:42;42.33;;;21.95;;
428;SDS011;201;48.758;9.290;2022-12-18T16:54:08;51.05;;;24.63;;
428;SDS011;201;48.758;9.290;2022-12-18T16:56:34;47.87;;;23.93;;
428;SDS011;201;48.758;9.290;2022-12-18T16:59:00;43.57;;;21.60;;
428;SDS011;201;48.758;9.290;2022-12-18T17:01:28;42.88;;;24.65;;
428;SDS011;201;48.758;9.290;2022-12-18T17:03:58;47.42;;;24.10;;
428;SDS011;201;48.758;9.290;2022-12-18T17:06:26;43.53;;;23.60;;
428;SDS011;201;48.758;9.290;2022-12-18T17:08:59;44.42;;;23.42;;
428;SDS011;201;48.758;9.290;2022-12-18T17:11:26;52.00;;;25.83;;
428;SDS011;201;48.758;9.290;2022-12-18T17:13:53;49.15;;;24.52;;
428;SDS011;201;48.758;9.290;2022-12-18T17:16:19;40.17;;;21.30;;
428;SDS011;201;48.758;9.290;2022-12-18T17:18:45;43.00;;;24.50;;